METAR Data
IDs: Format: Raw Decoded Include TAF

Data at: 1414 UTC 22 Apr 2021

KTPA 221353Z 06007KT 10SM CLR 20/07 A3013 RMK AO2 SLP202 T02000072
KTPA 221253Z 02010G17KT 10SM CLR 18/07 A3013 RMK AO2 SLP201 T01830072
KTPA 221153Z 03007KT 10SM CLR 18/09 A3010 RMK AO2 SLP194 T01780094 10206 20172 51021
KTPA 221053Z 03006KT 10SM CLR 17/10 A3009 RMK AO2 SLP190 T01720100
KTPA 220953Z 02005KT 10SM CLR 18/11 A3007 RMK AO2 SLP182 T01830106
KTPA 220853Z 01009KT 10SM CLR 19/12 A3004 RMK AO2 SLP172 T01940117 53007
KTPA 220753Z 35003KT 10SM CLR 19/16 A3002 RMK AO2 SLP165 T01940156
KTPA 220653Z 32004KT 10SM CLR 19/14 A3001 RMK AO2 SLP162 T01940144
KTPA 220553Z 32004KT 10SM CLR 19/14 A3002 RMK AO2 SLP165 T01940144 10244 20194 58012
KTPA 220453Z 31006KT 10SM CLR 21/14 A3005 RMK AO2 SLP174 T02060144 403000206
KTPA 220353Z 31006KT 10SM CLR 21/15 A3006 RMK AO2 SLP177 T02110150
KTPA 220253Z 29006KT 10SM CLR 22/13 A3006 RMK AO2 SLP178 T02170133 53014
KTPA 220153Z 31006KT 10SM CLR 22/14 A3004 RMK AO2 SLP170 T02220139
KTPA 220053Z 31006KT 10SM CLR 23/14 A3002 RMK AO2 SLP165 T02280139
KTPA 212353Z 29008KT 10SM FEW080 FEW150 24/12 A3002 RMK AO2 SLP164 T02390122 10300 20239 51012
KTPA 212253Z 29009G17KT 10SM FEW150 26/12 A3001 RMK AO2 SLP160 T02610117
KTPA 212153Z 29011KT 10SM FEW150 27/12 A3000 RMK AO2 SLP157 T02670122
KTPA 212053Z 31012G18KT 10SM FEW150 28/11 A2998 RMK AO2 SLP152 T02830106 55009
KTPA 211953Z 34010KT 10SM FEW085 FEW180 29/11 A2998 RMK AO2 SLP152 T02890111
KTPA 211853Z 32005KT 10SM SCT180 28/13 A3000 RMK AO2 SLP157 T02830128
KTPA 211753Z 31009KT 10SM SCT180 28/13 A3001 RMK AO2 SLP161 T02830128 10289 20222 58008
KTPA 211653Z 31008G16KT 10SM SCT150 28/13 A3002 RMK AO2 SLP165 T02830133
KTPA 211553Z 30006KT 10SM BKN080 27/14 A3004 RMK AO2 SLP171 T02670144
KTPA 211453Z 01005KT 10SM FEW035 BKN065 26/17 A3003 RMK AO2 SLP170 T02560172 53011
KTPA 211353Z 34008KT 10SM FEW020 BKN065 24/18 A3001 RMK AO2 SLP163 T02390178
KTPA 211253Z VRB06KT 10SM BKN060 23/17 A3001 RMK AO2 SLP162 T02330172
KTPA 211153Z 32005KT 10SM BKN060 22/18 A3000 RMK AO2 SLP158 70012 T02220183 10239 20217 53010
KTPA 211053Z 33004KT 10SM FEW016 BKN065 BKN160 22/18 A2999 RMK AO2 SLP153 T02170183
KTPA 210953Z 30005KT 10SM FEW016 SCT090 22/19 A2997 RMK AO2 SLP149 T02220189
KTPA 210853Z 30005KT 10SM FEW016 SCT100 23/19 A2997 RMK AO2 SLP149 T02280189 53004
KTPA 210753Z 27006KT 10SM BKN015 OVC022 24/21 A2996 RMK AO2 SLP144 T02390206
KTPA 210700Z 25008KT 10SM OVC015 23/21 A2995 RMK AO2 T02280206
KTPA 210653Z 24007KT 10SM FEW013 23/21 A2995 RMK AO2 SLP142 T02330206
KTPA 210553Z 24004KT 10SM FEW014 23/20 A2996 RMK AO2 SLP145 T02330200 10250 20233 58003
KTPA 210534Z 24005KT 10SM FEW017 23/20 A2996 RMK AO2 T02330200
KTPA 210453Z 00000KT 10SM OVC017 24/21 A2997 RMK AO2 SLP147 T02390206 402670206
KTPA 210353Z 00000KT 10SM OVC020 24/21 A2997 RMK AO2 SLP146 T02390206
KTPA 210253Z 03004KT 10SM OVC020 24/21 A2997 RMK AO2 SLP148 T02440206 51017